sensor_id;sensor_type;location;lat;lon;timestamp;temperature;humidity
34492;DHT22;20737;49.908;8.126;2022-09-12T00:00:48;13.60;99.90
34492;DHT22;20737;49.908;8.126;2022-09-12T00:03:15;13.60;99.90
34492;DHT22;20737;49.908;8.126;2022-09-12T00:05:43;13.50;99.90
34492;DHT22;20737;49.908;8.126;2022-09-12T00:08:10;13.50;99.90
34492;DHT22;20737;49.908;8.126;2022-09-12T00:10:39;13.50;99.90
34492;DHT22;20737;49.908;8.126;2022-09-12T00:13:07;13.40;99.90
34492;DHT22;20737;49.908;8.126;2022-09-12T00:15:37;13.40;99.90
34492;DHT22;20737;49.908;8.126;2022-09-12T00:18:04;13.40;99.90
34492;DHT22;20737;49.908;8.126;2022-09-12T00:20:31;13.30;99.90
34492;DHT22;20737;49.908;8.126;2022-09-12T00:22:57;13.40;99.90
34492;DHT22;20737;49.908;8.126;2022-09-12T00:25:24;13.30;99.90
34492;DHT22;20737;49.908;8.126;2022-09-12T00:27:52;13.30;99.90
34492;DHT22;20737;49.908;8.126;2022-09-12T00:30:19;13.30;99.90
34492;DHT22;20737;49.908;8.126;2022-09-12T00:32:46;13.20;99.90
34492;DHT22;20737;49.908;8.126;2022-09-12T00:35:13;13.20;99.90
34492;DHT22;20737;49.908;8.126;2022-09-12T00:37:40;13.30;99.90
34492;DHT22;20737;49.908;8.126;2022-09-12T00:40:07;13.20;99.90
34492;DHT22;20737;49.908;8.126;2022-09-12T00:42:34;13.10;99.90
34492;DHT22;20737;49.908;8.126;2022-09-12T00:45:03;13.10;99.90
34492;DHT22;20737;49.908;8.126;2022-09-12T00:47:32;13.00;99.90
34492;DHT22;20737;49.908;8.126;2022-09-12T00:50:04;13.10;99.90
34492;DHT22;20737;49.908;8.126;2022-09-12T00:52:35;13.10;99.90
34492;DHT22;20737;49.908;8.126;2022-09-12T00:55:06;13.10;99.90
34492;DHT22;20737;49.908;8.126;2022-09-12T00:57:36;13.10;99.90
34492;DHT22;20737;49.908;8.126;2022-09-12T01:00:08;13.00;99.90
34492;DHT22;20737;49.908;8.126;2022-09-12T01:02:42;12.90;99.90
34492;DHT22;20737;49.908;8.126;2022-09-12T01:05:10;12.80;99.90
34492;DHT22;20737;49.908;8.126;2022-09-12T01:07:39;12.80;99.90
34492;DHT22;20737;49.908;8.126;2022-09-12T01:10:07;12.80;99.90
34492;DHT22;20737;49.908;8.126;2022-09-12T01:12:37;12.80;99.90
34492;DHT22;20737;49.908;8.126;2022-09-12T01:15:06;12.80;99.90
34492;DHT22;20737;49.908;8.126;2022-09-12T01:17:38;12.80;99.90
34492;DHT22;20737;49.908;8.126;2022-09-12T01:20:25;12.70;99.90
34492;DHT22;20737;49.908;8.126;2022-09-12T01:23:22;12.70;99.90
34492;DHT22;20737;49.908;8.126;2022-09-12T01:26:05;12.80;99.90
34492;DHT22;20737;49.908;8.126;2022-09-12T01:29:02;12.80;99.90
34492;DHT22;20737;49.908;8.126;2022-09-12T01:31:39;12.80;99.90
34492;DHT22;20737;49.908;8.126;2022-09-12T01:34:14;12.70;99.90
34492;DHT22;20737;49.908;8.126;2022-09-12T01:36:49;12.60;99.90
34492;DHT22;20737;49.908;8.126;2022-09-12T01:39:27;12.60;99.90
34492;DHT22;20737;49.908;8.126;2022-09-12T01:42:03;12.60;99.90
34492;DHT22;20737;49.908;8.126;2022-09-12T01:44:39;12.60;99.90
34492;DHT22;20737;49.908;8.126;2022-09-12T01:47:14;12.60;99.90
34492;DHT22;20737;49.908;8.126;2022-09-12T01:49:47;12.50;99.90
34492;DHT22;20737;49.908;8.126;2022-09-12T01:52:19;12.50;99.90
34492;DHT22;20737;49.908;8.126;2022-09-12T01:54:50;12.50;99.90
34492;DHT22;20737;49.908;8.126;2022-09-12T01:57:23;12.60;99.90
34492;DHT22;20737;49.908;8.126;2022-09-12T01:59:54;12.60;99.90
34492;DHT22;20737;49.908;8.126;2022-09-12T02:02:26;12.60;99.90
34492;DHT22;20737;49.908;8.126;2022-09-12T02:04:58;12.60;99.90
34492;DHT22;20737;49.908;8.126;2022-09-12T02:07:30;12.60;99.90
34492;DHT22;20737;49.908;8.126;2022-09-12T02:10:05;12.60;99.90
34492;DHT22;20737;49.908;8.126;2022-09-12T02:12:37;12.60;99.90
34492;DHT22;20737;49.908;8.126;2022-09-12T02:15:08;12.50;99.90
34492;DHT22;20737;49.908;8.126;2022-09-12T02:17:38;12.40;99.90
34492;DHT22;20737;49.908;8.126;2022-09-12T02:20:11;12.50;99.90
34492;DHT22;20737;49.908;8.126;2022-09-12T02:22:41;12.30;99.90
34492;DHT22;20737;49.908;8.126;2022-09-12T02:25:11;12.30;99.90
34492;DHT22;20737;49.908;8.126;2022-09-12T02:27:41;12.30;99.90
34492;DHT22;20737;49.908;8.126;2022-09-12T02:30:11;12.30;99.90
34492;DHT22;20737;49.908;8.126;2022-09-12T02:32:45;12.30;99.90
34492;DHT22;20737;49.908;8.126;2022-09-12T02:35:22;12.20;99.90
34492;DHT22;20737;49.908;8.126;2022-09-12T02:37:55;12.20;99.90
34492;DHT22;20737;49.908;8.126;2022-09-12T02:40:23;12.10;99.90
34492;DHT22;20737;49.908;8.126;2022-09-12T02:42:50;12.10;99.90
34492;DHT22;20737;49.908;8.126;2022-09-12T02:45:17;12.10;99.90
34492;DHT22;20737;49.908;8.126;2022-09-12T02:47:48;12.10;99.90
34492;DHT22;20737;49.908;8.126;2022-09-12T02:50:16;12.00;99.90
34492;DHT22;20737;49.908;8.126;2022-09-12T02:52:43;12.00;99.90
34492;DHT22;20737;49.908;8.126;2022-09-12T02:55:11;11.90;99.90
34492;DHT22;20737;49.908;8.126;2022-09-12T02:57:39;11.90;99.90
34492;DHT22;20737;49.908;8.126;2022-09-12T03:00:08;11.90;99.90
34492;DHT22;20737;49.908;8.126;2022-09-12T03:02:51;11.90;99.90
34492;DHT22;20737;49.908;8.126;2022-09-12T03:05:26;11.90;99.90
34492;DHT22;20737;49.908;8.126;2022-09-12T03:11:24;11.90;99.90
34492;DHT22;20737;49.908;8.126;2022-09-12T03:13:59;11.90;99.90
34492;DHT22;20737;49.908;8.126;2022-09-12T03:16:34;11.90;99.90
34492;DHT22;20737;49.908;8.126;2022-09-12T03:19:10;11.90;99.90
34492;DHT22;20737;49.908;8.126;2022-09-12T03:21:44;11.80;99.90
34492;DHT22;20737;49.908;8.126;2022-09-12T03:24:17;11.80;99.90
34492;DHT22;20737;49.908;8.126;2022-09-12T03:26:48;11.80;99.90
34492;DHT22;20737;49.908;8.126;2022-09-12T03:29:18;11.80;99.90
34492;DHT22;20737;49.908;8.126;2022-09-12T03:31:51;11.80;99.90
34492;DHT22;20737;49.908;8.126;2022-09-12T03:34:19;11.80;99.90
34492;DHT22;20737;49.908;8.126;2022-09-12T03:36:47;11.70;99.90
34492;DHT22;20737;49.908;8.126;2022-09-12T03:39:14;11.60;99.90
34492;DHT22;20737;49.908;8.126;2022-09-12T03:41:41;11.60;99.90
34492;DHT22;20737;49.908;8.126;2022-09-12T03:44:08;11.60;99.90
34492;DHT22;20737;49.908;8.126;2022-09-12T03:46:35;11.50;99.90
34492;DHT22;20737;49.908;8.126;2022-09-12T03:49:01;11.60;99.90
34492;DHT22;20737;49.908;8.126;2022-09-12T03:51:29;11.50;99.90
34492;DHT22;20737;49.908;8.126;2022-09-12T03:53:56;11.50;99.90
34492;DHT22;20737;49.908;8.126;2022-09-12T03:56:23;11.50;99.90
34492;DHT22;20737;49.908;8.126;2022-09-12T03:58:50;11.50;99.90
34492;DHT22;20737;49.908;8.126;2022-09-12T04:01:18;11.50;99.90
34492;DHT22;20737;49.908;8.126;2022-09-12T04:03:46;11.30;99.90
34492;DHT22;20737;49.908;8.126;2022-09-12T04:06:15;11.30;99.90
34492;DHT22;20737;49.908;8.126;2022-09-12T04:08:50;11.40;99.90
34492;DHT22;20737;49.908;8.126;2022-09-12T04:11:18;11.30;99.90
34492;DHT22;20737;49.908;8.126;2022-09-12T04:13:46;11.30;99.90
34492;DHT22;20737;49.908;8.126;2022-09-12T04:16:14;11.30;99.90
34492;DHT22;20737;49.908;8.126;2022-09-12T04:18:42;11.30;99.90
34492;DHT22;20737;49.908;8.126;2022-09-12T04:21:11;11.30;99.90
34492;DHT22;20737;49.908;8.126;2022-09-12T04:23:38;11.30;99.90
34492;DHT22;20737;49.908;8.126;2022-09-12T04:26:07;11.30;99.90
34492;DHT22;20737;49.908;8.126;2022-09-12T04:28:35;11.30;99.90
34492;DHT22;20737;49.908;8.126;2022-09-12T04:31:03;11.20;99.90
34492;DHT22;20737;49.908;8.126;2022-09-12T04:33:32;11.20;99.90
34492;DHT22;20737;49.908;8.126;2022-09-12T04:36:03;11.20;99.90
34492;DHT22;20737;49.908;8.126;2022-09-12T04:38:30;11.10;99.90
34492;DHT22;20737;49.908;8.126;2022-09-12T04:40:57;11.10;99.90
34492;DHT22;20737;49.908;8.126;2022-09-12T04:43:25;11.10;99.90
34492;DHT22;20737;49.908;8.126;2022-09-12T04:45:52;11.10;99.90
34492;DHT22;20737;49.908;8.126;2022-09-12T04:48:19;11.10;99.90
34492;DHT22;20737;49.908;8.126;2022-09-12T04:50:45;11.10;99.90
34492;DHT22;20737;49.908;8.126;2022-09-12T04:53:12;11.10;99.90
34492;DHT22;20737;49.908;8.126;2022-09-12T04:55:39;11.10;99.90
34492;DHT22;20737;49.908;8.126;2022-09-12T04:58:05;11.10;99.90
34492;DHT22;20737;49.908;8.126;2022-09-12T05:00:33;11.10;99.90
34492;DHT22;20737;49.908;8.126;2022-09-12T05:03:00;11.10;99.90
34492;DHT22;20737;49.908;8.126;2022-09-12T05:05:27;11.10;99.90
34492;DHT22;20737;49.908;8.126;2022-09-12T05:07:54;11.10;99.90
34492;DHT22;20737;49.908;8.126;2022-09-12T05:10:20;11.10;99.90
34492;DHT22;20737;49.908;8.126;2022-09-12T05:12:48;11.10;99.90
34492;DHT22;20737;49.908;8.126;2022-09-12T05:15:15;11.10;99.90
34492;DHT22;20737;49.908;8.126;2022-09-12T05:17:43;11.10;99.90
34492;DHT22;20737;49.908;8.126;2022-09-12T05:20:09;11.10;99.90
34492;DHT22;20737;49.908;8.126;2022-09-12T05:22:37;11.10;99.90
34492;DHT22;20737;49.908;8.126;2022-09-12T05:25:04;11.10;99.90
34492;DHT22;20737;49.908;8.126;2022-09-12T05:27:31;11.30;99.90
34492;DHT22;20737;49.908;8.126;2022-09-12T05:29:58;11.30;99.90
34492;DHT22;20737;49.908;8.126;2022-09-12T05:32:24;11.40;99.90
34492;DHT22;20737;49.908;8.126;2022-09-12T05:34:53;11.40;99.90
34492;DHT22;20737;49.908;8.126;2022-09-12T05:37:19;11.50;99.90
34492;DHT22;20737;49.908;8.126;2022-09-12T05:39:47;11.60;99.90
34492;DHT22;20737;49.908;8.126;2022-09-12T05:42:14;11.70;99.90
34492;DHT22;20737;49.908;8.126;2022-09-12T05:44:41;11.80;99.90
34492;DHT22;20737;49.908;8.126;2022-09-12T05:47:10;11.90;99.90
34492;DHT22;20737;49.908;8.126;2022-09-12T05:49:37;12.10;99.90
34492;DHT22;20737;49.908;8.126;2022-09-12T05:52:05;12.20;99.90
34492;DHT22;20737;49.908;8.126;2022-09-12T05:54:32;12.30;99.90
34492;DHT22;20737;49.908;8.126;2022-09-12T05:56:59;12.30;99.90
34492;DHT22;20737;49.908;8.126;2022-09-12T05:59:25;12.40;99.90
34492;DHT22;20737;49.908;8.126;2022-09-12T06:01:52;12.50;99.90
34492;DHT22;20737;49.908;8.126;2022-09-12T06:04:19;12.60;99.90
34492;DHT22;20737;49.908;8.126;2022-09-12T06:06:48;12.70;99.90
34492;DHT22;20737;49.908;8.126;2022-09-12T06:09:16;12.90;99.90
34492;DHT22;20737;49.908;8.126;2022-09-12T06:11:44;13.00;99.90
34492;DHT22;20737;49.908;8.126;2022-09-12T06:14:14;13.10;99.90
34492;DHT22;20737;49.908;8.126;2022-09-12T06:16:42;13.30;99.90
34492;DHT22;20737;49.908;8.126;2022-09-12T06:19:14;13.40;99.90
34492;DHT22;20737;49.908;8.126;2022-09-12T06:21:41;13.50;99.90
34492;DHT22;20737;49.908;8.126;2022-09-12T06:24:08;13.60;99.90
34492;DHT22;20737;49.908;8.126;2022-09-12T06:26:36;13.80;99.90
34492;DHT22;20737;49.908;8.126;2022-09-12T06:29:03;13.90;99.90
34492;DHT22;20737;49.908;8.126;2022-09-12T06:31:32;14.10;99.90
34492;DHT22;20737;49.908;8.126;2022-09-12T06:34:00;14.30;99.90
34492;DHT22;20737;49.908;8.126;2022-09-12T06:36:30;14.50;99.90
34492;DHT22;20737;49.908;8.126;2022-09-12T06:38:58;14.70;99.90
34492;DHT22;20737;49.908;8.126;2022-09-12T06:41:27;15.10;99.90
34492;DHT22;20737;49.908;8.126;2022-09-12T06:43:56;15.60;99.90
34492;DHT22;20737;49.908;8.126;2022-09-12T06:46:23;16.20;99.90
34492;DHT22;20737;49.908;8.126;2022-09-12T06:48:50;17.10;99.90
34492;DHT22;20737;49.908;8.126;2022-09-12T06:51:18;17.90;99.90
34492;DHT22;20737;49.908;8.126;2022-09-12T06:53:46;18.50;99.90
34492;DHT22;20737;49.908;8.126;2022-09-12T06:56:15;19.10;99.90
34492;DHT22;20737;49.908;8.126;2022-09-12T06:58:43;19.50;99.90
34492;DHT22;20737;49.908;8.126;2022-09-12T07:01:13;20.20;99.90
34492;DHT22;20737;49.908;8.126;2022-09-12T07:03:42;20.60;99.90
34492;DHT22;20737;49.908;8.126;2022-09-12T07:06:11;21.20;99.90
34492;DHT22;20737;49.908;8.126;2022-09-12T07:08:38;21.50;99.90
34492;DHT22;20737;49.908;8.126;2022-09-12T07:11:10;21.70;99.90
34492;DHT22;20737;49.908;8.126;2022-09-12T07:13:37;21.90;99.90
34492;DHT22;20737;49.908;8.126;2022-09-12T07:16:05;22.50;99.90
34492;DHT22;20737;49.908;8.126;2022-09-12T07:18:34;22.50;99.90
34492;DHT22;20737;49.908;8.126;2022-09-12T07:21:03;22.50;99.90
34492;DHT22;20737;49.908;8.126;2022-09-12T07:23:31;22.60;99.90
34492;DHT22;20737;49.908;8.126;2022-09-12T07:25:59;22.20;99.90
34492;DHT22;20737;49.908;8.126;2022-09-12T07:28:27;22.40;99.90
34492;DHT22;20737;49.908;8.126;2022-09-12T07:30:54;22.50;99.90
34492;DHT22;20737;49.908;8.126;2022-09-12T07:33:22;22.70;99.90
34492;DHT22;20737;49.908;8.126;2022-09-12T07:35:51;22.60;99.90
34492;DHT22;20737;49.908;8.126;2022-09-12T07:38:19;22.80;99.90
34492;DHT22;20737;49.908;8.126;2022-09-12T07:40:46;23.40;99.90
34492;DHT22;20737;49.908;8.126;2022-09-12T07:43:12;23.80;99.90
34492;DHT22;20737;49.908;8.126;2022-09-12T07:45:39;24.60;99.90
34492;DHT22;20737;49.908;8.126;2022-09-12T07:48:07;24.80;99.90
34492;DHT22;20737;49.908;8.126;2022-09-12T07:50:34;25.20;99.90
34492;DHT22;20737;49.908;8.126;2022-09-12T07:53:02;25.40;99.90
34492;DHT22;20737;49.908;8.126;2022-09-12T07:55:29;25.10;99.90
34492;DHT22;20737;49.908;8.126;2022-09-12T07:57:56;24.90;99.90
34492;DHT22;20737;49.908;8.126;2022-09-12T08:00:23;25.30;99.90
34492;DHT22;20737;49.908;8.126;2022-09-12T08:02:51;26.20;99.90
34492;DHT22;20737;49.908;8.126;2022-09-12T08:05:19;26.90;97.70
34492;DHT22;20737;49.908;8.126;2022-09-12T08:07:46;27.20;97.10
34492;DHT22;20737;49.908;8.126;2022-09-12T08:10:14;27.70;95.90
34492;DHT22;20737;49.908;8.126;2022-09-12T08:12:41;28.00;95.50
34492;DHT22;20737;49.908;8.126;2022-09-12T08:15:08;28.00;94.60
34492;DHT22;20737;49.908;8.126;2022-09-12T08:17:35;27.50;94.30
34492;DHT22;20737;49.908;8.126;2022-09-12T08:20:02;28.20;93.00
34492;DHT22;20737;49.908;8.126;2022-09-12T08:22:29;28.70;91.90
34492;DHT22;20737;49.908;8.126;2022-09-12T08:24:57;28.50;91.80
34492;DHT22;20737;49.908;8.126;2022-09-12T08:27:25;28.40;91.00
34492;DHT22;20737;49.908;8.126;2022-09-12T08:29:52;29.20;87.90
34492;DHT22;20737;49.908;8.126;2022-09-12T08:32:19;29.80;86.90
34492;DHT22;20737;49.908;8.126;2022-09-12T08:34:46;29.40;86.10
34492;DHT22;20737;49.908;8.126;2022-09-12T08:37:13;29.30;86.60
34492;DHT22;20737;49.908;8.126;2022-09-12T08:39:40;28.80;89.50
34492;DHT22;20737;49.908;8.126;2022-09-12T08:42:09;29.00;89.00
34492;DHT22;20737;49.908;8.126;2022-09-12T08:45:04;28.80;89.00
34492;DHT22;20737;49.908;8.126;2022-09-12T08:47:36;28.40;87.90
34492;DHT22;20737;49.908;8.126;2022-09-12T08:50:14;28.00;90.20
34492;DHT22;20737;49.908;8.126;2022-09-12T08:52:47;27.40;91.10
34492;DHT22;20737;49.908;8.126;2022-09-12T08:55:28;27.20;91.10
34492;DHT22;20737;49.908;8.126;2022-09-12T08:57:57;27.50;92.00
34492;DHT22;20737;49.908;8.126;2022-09-12T09:00:31;27.10;92.30
34492;DHT22;20737;49.908;8.126;2022-09-12T09:06:11;27.20;92.60
34492;DHT22;20737;49.908;8.126;2022-09-12T09:08:50;27.30;92.90
34492;DHT22;20737;49.908;8.126;2022-09-12T09:14:32;28.90;92.60
34492;DHT22;20737;49.908;8.126;2022-09-12T09:17:22;29.40;88.00
34492;DHT22;20737;49.908;8.126;2022-09-12T09:19:54;30.20;83.40
34492;DHT22;20737;49.908;8.126;2022-09-12T09:22:31;29.80;84.80
34492;DHT22;20737;49.908;8.126;2022-09-12T09:25:03;29.50;86.90
34492;DHT22;20737;49.908;8.126;2022-09-12T09:27:35;29.60;83.40
34492;DHT22;20737;49.908;8.126;2022-09-12T09:30:07;30.00;80.80
34492;DHT22;20737;49.908;8.126;2022-09-12T09:32:37;30.00;79.90
34492;DHT22;20737;49.908;8.126;2022-09-12T09:35:13;30.10;78.20
34492;DHT22;20737;49.908;8.126;2022-09-12T09:37:42;30.40;79.80
34492;DHT22;20737;49.908;8.126;2022-09-12T09:40:17;30.60;77.20
34492;DHT22;20737;49.908;8.126;2022-09-12T09:42:54;30.90;75.90
34492;DHT22;20737;49.908;8.126;2022-09-12T09:45:24;31.00;73.30
34492;DHT22;20737;49.908;8.126;2022-09-12T09:47:57;30.90;75.60
34492;DHT22;20737;49.908;8.126;2022-09-12T09:50:26;30.70;75.00
34492;DHT22;20737;49.908;8.126;2022-09-12T09:52:56;32.10;72.70
34492;DHT22;20737;49.908;8.126;2022-09-12T09:55:28;33.20;68.70
34492;DHT22;20737;49.908;8.126;2022-09-12T09:57:57;33.50;64.60
34492;DHT22;20737;49.908;8.126;2022-09-12T10:00:28;32.90;63.60
34492;DHT22;20737;49.908;8.126;2022-09-12T10:03:20;33.10;62.10
34492;DHT22;20737;49.908;8.126;2022-09-12T10:05:50;32.40;64.00
34492;DHT22;20737;49.908;8.126;2022-09-12T10:08:22;32.50;62.80
34492;DHT22;20737;49.908;8.126;2022-09-12T10:10:59;32.00;66.40
34492;DHT22;20737;49.908;8.126;2022-09-12T10:13:33;32.80;64.20
34492;DHT22;20737;49.908;8.126;2022-09-12T10:16:03;33.30;62.70
34492;DHT22;20737;49.908;8.126;2022-09-12T10:18:37;33.50;61.40
34492;DHT22;20737;49.908;8.126;2022-09-12T10:21:32;34.30;58.80
34492;DHT22;20737;49.908;8.126;2022-09-12T10:24:16;33.80;59.20
34492;DHT22;20737;49.908;8.126;2022-09-12T10:26:52;34.40;57.30
34492;DHT22;20737;49.908;8.126;2022-09-12T10:29:22;34.80;55.70
34492;DHT22;20737;49.908;8.126;2022-09-12T10:31:52;35.10;55.00
34492;DHT22;20737;49.908;8.126;2022-09-12T10:34:25;34.80;55.20
34492;DHT22;20737;49.908;8.126;2022-09-12T10:37:02;34.90;54.90
34492;DHT22;20737;49.908;8.126;2022-09-12T10:39:30;35.10;54.60
34492;DHT22;20737;49.908;8.126;2022-09-12T10:41:59;35.80;53.50
34492;DHT22;20737;49.908;8.126;2022-09-12T10:44:27;36.20;52.60
34492;DHT22;20737;49.908;8.126;2022-09-12T10:46:55;36.80;48.30
34492;DHT22;20737;49.908;8.126;2022-09-12T10:49:27;36.70;48.30
34492;DHT22;20737;49.908;8.126;2022-09-12T10:51:55;36.20;48.90
34492;DHT22;20737;49.908;8.126;2022-09-12T10:54:25;36.30;48.80
34492;DHT22;20737;49.908;8.126;2022-09-12T10:57:23;37.20;47.30
34492;DHT22;20737;49.908;8.126;2022-09-12T11:00:03;36.70;47.00
34492;DHT22;20737;49.908;8.126;2022-09-12T11:02:44;35.70;48.00
34492;DHT22;20737;49.908;8.126;2022-09-12T11:05:21;35.70;48.80
34492;DHT22;20737;49.908;8.126;2022-09-12T11:08:01;36.50;47.70
34492;DHT22;20737;49.908;8.126;2022-09-12T11:10:37;37.00;45.40
34492;DHT22;20737;49.908;8.126;2022-09-12T11:13:13;36.30;46.30
34492;DHT22;20737;49.908;8.126;2022-09-12T11:15:55;35.60;48.60
34492;DHT22;20737;49.908;8.126;2022-09-12T11:18:38;35.40;48.70
34492;DHT22;20737;49.908;8.126;2022-09-12T11:21:21;34.70;48.90
34492;DHT22;20737;49.908;8.126;2022-09-12T11:24:04;34.10;50.40
34492;DHT22;20737;49.908;8.126;2022-09-12T11:26:43;34.40;50.80
34492;DHT22;20737;49.908;8.126;2022-09-12T11:29:20;35.20;49.10
34492;DHT22;20737;49.908;8.126;2022-09-12T11:32:22;35.60;47.70
34492;DHT22;20737;49.908;8.126;2022-09-12T11:34:56;36.00;48.80
34492;DHT22;20737;49.908;8.126;2022-09-12T11:37:50;34.80;48.50
34492;DHT22;20737;49.908;8.126;2022-09-12T11:40:26;32.90;51.40
34492;DHT22;20737;49.908;8.126;2022-09-12T11:43:00;31.90;54.20
34492;DHT22;20737;49.908;8.126;2022-09-12T11:45:30;31.20;55.60
34492;DHT22;20737;49.908;8.126;2022-09-12T11:48:04;30.60;55.40
34492;DHT22;20737;49.908;8.126;2022-09-12T11:50:32;30.30;56.90
34492;DHT22;20737;49.908;8.126;2022-09-12T11:53:04;30.50;57.20
34492;DHT22;20737;49.908;8.126;2022-09-12T11:55:46;30.90;56.70
34492;DHT22;20737;49.908;8.126;2022-09-12T11:58:14;30.90;57.70
34492;DHT22;20737;49.908;8.126;2022-09-12T12:00:46;30.80;57.20
34492;DHT22;20737;49.908;8.126;2022-09-12T12:03:16;30.80;56.50
34492;DHT22;20737;49.908;8.126;2022-09-12T12:05:50;31.50;55.30
34492;DHT22;20737;49.908;8.126;2022-09-12T12:08:21;32.30;52.80
34492;DHT22;20737;49.908;8.126;2022-09-12T12:10:51;32.70;51.80
34492;DHT22;20737;49.908;8.126;2022-09-12T12:13:27;32.20;51.30
34492;DHT22;20737;49.908;8.126;2022-09-12T12:15:58;31.50;53.40
34492;DHT22;20737;49.908;8.126;2022-09-12T12:18:26;30.80;55.10
34492;DHT22;20737;49.908;8.126;2022-09-12T12:20:55;30.00;56.40
34492;DHT22;20737;49.908;8.126;2022-09-12T12:23:29;29.70;58.40
34492;DHT22;20737;49.908;8.126;2022-09-12T12:25:58;29.80;57.80
34492;DHT22;20737;49.908;8.126;2022-09-12T12:28:54;30.70;55.40
34492;DHT22;20737;49.908;8.126;2022-09-12T12:31:21;30.80;54.30
34492;DHT22;20737;49.908;8.126;2022-09-12T12:33:54;30.90;54.30
34492;DHT22;20737;49.908;8.126;2022-09-12T12:36:48;30.30;56.40
34492;DHT22;20737;49.908;8.126;2022-09-12T12:48:59;29.90;58.40
34492;DHT22;20737;49.908;8.126;2022-09-12T12:51:54;30.80;57.30
34492;DHT22;20737;49.908;8.126;2022-09-12T12:54:33;31.20;55.10
34492;DHT22;20737;49.908;8.126;2022-09-12T12:57:33;31.30;54.30
34492;DHT22;20737;49.908;8.126;2022-09-12T13:00:06;30.90;54.50
34492;DHT22;20737;49.908;8.126;2022-09-12T13:02:37;30.80;56.30
34492;DHT22;20737;49.908;8.126;2022-09-12T13:05:19;31.10;55.80
34492;DHT22;20737;49.908;8.126;2022-09-12T13:07:53;31.40;54.40
34492;DHT22;20737;49.908;8.126;2022-09-12T13:10:22;31.60;53.70
34492;DHT22;20737;49.908;8.126;2022-09-12T13:12:51;31.30;53.40
34492;DHT22;20737;49.908;8.126;2022-09-12T13:15:47;30.80;54.50
34492;DHT22;20737;49.908;8.126;2022-09-12T13:18:18;30.40;54.50
34492;DHT22;20737;49.908;8.126;2022-09-12T13:20:53;30.20;56.20
34492;DHT22;20737;49.908;8.126;2022-09-12T13:23:22;30.50;54.90
34492;DHT22;20737;49.908;8.126;2022-09-12T13:25:54;30.90;54.60
34492;DHT22;20737;49.908;8.126;2022-09-12T13:28:22;30.90;56.30
34492;DHT22;20737;49.908;8.126;2022-09-12T13:30:57;30.70;55.20
34492;DHT22;20737;49.908;8.126;2022-09-12T13:33:32;30.80;54.30
34492;DHT22;20737;49.908;8.126;2022-09-12T13:36:21;31.10;54.00
34492;DHT22;20737;49.908;8.126;2022-09-12T13:39:01;31.10;54.30
34492;DHT22;20737;49.908;8.126;2022-09-12T13:41:45;31.10;54.90
34492;DHT22;20737;49.908;8.126;2022-09-12T13:44:17;31.30;53.40
34492;DHT22;20737;49.908;8.126;2022-09-12T13:46:45;30.80;53.90
34492;DHT22;20737;49.908;8.126;2022-09-12T13:49:18;30.70;53.50
34492;DHT22;20737;49.908;8.126;2022-09-12T13:51:56;30.90;54.80
34492;DHT22;20737;49.908;8.126;2022-09-12T13:54:24;31.40;54.90
34492;DHT22;20737;49.908;8.126;2022-09-12T13:56:52;31.40;53.40
34492;DHT22;20737;49.908;8.126;2022-09-12T13:59:19;31.30;54.60
34492;DHT22;20737;49.908;8.126;2022-09-12T14:01:47;31.00;55.30
34492;DHT22;20737;49.908;8.126;2022-09-12T14:04:15;31.00;54.50
34492;DHT22;20737;49.908;8.126;2022-09-12T14:07:08;30.90;55.40
34492;DHT22;20737;49.908;8.126;2022-09-12T14:09:39;31.30;55.00
34492;DHT22;20737;49.908;8.126;2022-09-12T14:12:13;31.20;53.30
34492;DHT22;20737;49.908;8.126;2022-09-12T14:14:45;30.60;53.50
34492;DHT22;20737;49.908;8.126;2022-09-12T14:17:15;30.00;55.50
34492;DHT22;20737;49.908;8.126;2022-09-12T14:19:42;30.10;56.20
34492;DHT22;20737;49.908;8.126;2022-09-12T14:22:12;29.90;55.20
34492;DHT22;20737;49.908;8.126;2022-09-12T14:24:43;30.20;55.00
34492;DHT22;20737;49.908;8.126;2022-09-12T14:27:16;30.10;55.30
34492;DHT22;20737;49.908;8.126;2022-09-12T14:29:44;29.90;54.80
34492;DHT22;20737;49.908;8.126;2022-09-12T14:32:20;29.60;54.30
34492;DHT22;20737;49.908;8.126;2022-09-12T14:35:03;29.10;55.40
34492;DHT22;20737;49.908;8.126;2022-09-12T14:37:31;28.70;55.40
34492;DHT22;20737;49.908;8.126;2022-09-12T14:39:58;28.60;55.40
34492;DHT22;20737;49.908;8.126;2022-09-12T14:42:27;28.60;57.30
34492;DHT22;20737;49.908;8.126;2022-09-12T14:44:58;28.50;56.10
34492;DHT22;20737;49.908;8.126;2022-09-12T14:47:29;28.30;58.00
34492;DHT22;20737;49.908;8.126;2022-09-12T14:49:59;28.20;56.80
34492;DHT22;20737;49.908;8.126;2022-09-12T14:52:28;28.10;57.00
34492;DHT22;20737;49.908;8.126;2022-09-12T14:54:58;27.80;56.80
34492;DHT22;20737;49.908;8.126;2022-09-12T14:57:39;27.60;57.20
34492;DHT22;20737;49.908;8.126;2022-09-12T15:00:21;27.40;58.80
34492;DHT22;20737;49.908;8.126;2022-09-12T15:02:49;27.40;57.50
34492;DHT22;20737;49.908;8.126;2022-09-12T15:05:19;27.30;58.50
34492;DHT22;20737;49.908;8.126;2022-09-12T15:07:52;27.40;60.00
34492;DHT22;20737;49.908;8.126;2022-09-12T15:10:24;27.30;59.20
34492;DHT22;20737;49.908;8.126;2022-09-12T15:13:09;27.20;59.70
34492;DHT22;20737;49.908;8.126;2022-09-12T15:15:39;27.20;61.80
34492;DHT22;20737;49.908;8.126;2022-09-12T15:18:06;27.40;62.00
34492;DHT22;20737;49.908;8.126;2022-09-12T15:20:35;27.30;58.60
34492;DHT22;20737;49.908;8.126;2022-09-12T15:23:03;27.00;59.30
34492;DHT22;20737;49.908;8.126;2022-09-12T15:25:32;27.10;60.80
34492;DHT22;20737;49.908;8.126;2022-09-12T15:27:59;27.00;61.20
34492;DHT22;20737;49.908;8.126;2022-09-12T15:30:26;27.00;62.80
34492;DHT22;20737;49.908;8.126;2022-09-12T15:32:53;26.90;61.40
34492;DHT22;20737;49.908;8.126;2022-09-12T15:35:22;26.80;59.60
34492;DHT22;20737;49.908;8.126;2022-09-12T15:37:50;26.60;60.00
34492;DHT22;20737;49.908;8.126;2022-09-12T15:40:17;26.70;60.80
34492;DHT22;20737;49.908;8.126;2022-09-12T15:42:45;26.60;59.40
34492;DHT22;20737;49.908;8.126;2022-09-12T15:45:16;26.40;59.90
34492;DHT22;20737;49.908;8.126;2022-09-12T15:47:43;26.30;62.00
34492;DHT22;20737;49.908;8.126;2022-09-12T15:50:11;26.30;61.90
34492;DHT22;20737;49.908;8.126;2022-09-12T15:52:40;26.30;61.60
34492;DHT22;20737;49.908;8.126;2022-09-12T15:55:13;26.30;63.00
34492;DHT22;20737;49.908;8.126;2022-09-12T15:57:40;26.10;62.90
34492;DHT22;20737;49.908;8.126;2022-09-12T16:00:10;26.10;62.20
34492;DHT22;20737;49.908;8.126;2022-09-12T16:02:37;26.00;62.50
34492;DHT22;20737;49.908;8.126;2022-09-12T16:05:04;25.90;63.80
34492;DHT22;20737;49.908;8.126;2022-09-12T16:07:32;25.70;64.90
34492;DHT22;20737;49.908;8.126;2022-09-12T16:09:59;25.70;64.40
34492;DHT22;20737;49.908;8.126;2022-09-12T16:12:25;25.60;65.70
34492;DHT22;20737;49.908;8.126;2022-09-12T16:14:52;25.60;64.90